Thursday, April 26, 2018, 5:37 AM EDT
Back to Local

KWRI, Mcguire Air Force Base

Location: Trenton, NJ, United States Lat: 40.017
Local Time: 5:37 AM EDT ( 9:37 GMT) Lon: -74.6
Time Zone: US/Eastern Elev: 134 ft

Show me the last for .
Show Coded

Time T Td Feel RH Dir Speed Gust Alt SLP Vis Weather Sky Remarks
2018-04-26 05:11 57 54 - 87 270° 8 - 29.64 29.64 10 OVC031 None
2018-04-26 04:56 58 53 - 82 260° 8 - 29.64 29.64 10 OVC027 None
2018-04-26 03:56 58 55 - 90 280° 12 - 29.62 29.62 10 BKN023 OVC037 None
2018-04-26 03:26 59 55 - 87 280° 9 - 29.61 29.61 10 OVC031 None
2018-04-26 02:56 59 56 - 91 300° 10 - 29.60 29.60 10 BKN020 OVC025 None
2018-04-26 02:51 59 57 - 93 290° 13 - 29.60 29.60 10 BKN020 OVC025 None
2018-04-26 02:36 59 57 - 93 290° 8 - 29.60 29.60 10 OVC019 None
2018-04-26 02:26 59 57 - 93 280° 8 - 29.60 29.60 10 OVC021 None
2018-04-26 01:56 59 58 - 98 260° 8 - 29.61 29.61 10 OVC015 1-hr Precip Total: 0.01"
6-hr Precip Total (2am): 0.30"
6-hr Min Temp (2am): 58.5°F
6-hr Max Temp (2am): 63.3°F
2018-04-26 01:31 59 59 - 100 260° 5 - 29.61 29.61 7 BKN016 BKN038 None
2018-04-26 01:01 59 59 - 100 - Calm - 29.61 29.61 10 FEW004 SCT010 SCT021 OVC035 None
2018-04-26 00:56 59 59 - 98 - Calm - 29.61 29.61 10 FEW004 SCT010 BKN020 OVC035 1-hr Precip Total: Trace
24-hr Min Temp (1am): 53.1°F
24-hr Max Temp (1am): 68.9°F
2018-04-26 00:46 59 59 - 100 - Calm - 29.62 29.62 10 SCT004 BKN009 OVC033 None
2018-04-26 00:45 59 59 - 100 - Calm - 29.62 29.62 10 -RA SCT004 BKN009 OVC033 None
2018-04-26 00:20 59 59 - 100 - Calm - 29.62 29.62 9 -RA BKN004 OVC039 None
2018-04-26 00:15 59 59 - 100 - Calm - 29.62 29.62 10 -RA BKN005 OVC039 None
2018-04-26 00:05 59 59 - 100 280° 3 - 29.62 29.62 10 BKN005 OVC038 None
2018-04-26 00:01 59 59 - 100 290° 5 - 29.62 29.62 10 -RA SCT004 BKN015 OVC038 None
2018-04-25 23:56 59 59 - 98 310° 3 - 29.62 29.62 10 -RA BKN004 BKN014 OVC038 1-hr Precip Total: 0.07"
2018-04-25 23:16 59 59 - 100 300° 5 - 29.63 29.63 5 RA BR BKN004 BKN014 OVC021 None
2018-04-25 23:11 59 59 - 100 290° 5 - 29.63 29.63 8 -RA SCT004 BKN009 OVC021 None
2018-04-25 23:06 59 59 - 100 290° 5 - 29.63 29.63 8 -RA SCT004 OVC021 None
2018-04-25 23:01 59 59 - 100 290° 5 - 29.63 29.63 7 -RA BKN004 OVC021 None
2018-04-25 22:56 59 59 - 98 300° 3 - 29.63 29.63 6 -RA BR BKN003 OVC021 1-hr Precip Total: 0.10"
6-hr Precip Total (11pm): 0.22"
2018-04-25 22:46 59 59 - 100 - Calm - 29.64 29.64 5 -RA BR BKN003 OVC019 None
2018-04-25 22:41 59 59 - 100 330° 3 - 29.64 29.64 5 -RA BR OVC004 None
2018-04-25 22:06 61 59 - 93 330° 6 - 29.64 29.64 3 -RA BR BKN003 OVC010 None
2018-04-25 21:56 60 60 - 98 340° 7 - 29.64 29.64 5 +RA BR OVC004 1-hr Precip Total: 0.12"
2018-04-25 21:35 61 59 - 93 340° 3 - 29.65 29.65 4 RA BR BKN004 BKN009 None
2018-04-25 21:05 61 59 - 93 - Calm - 29.64 29.64 10 -RA BKN008 OVC014 None
2018-04-25 20:56 61 59 - 92 - Calm - 29.64 29.64 10 BKN010 OVC013 1-hr Precip Total: Trace
2018-04-25 20:49 61 59 - 93 - Calm - 29.64 29.64 10 BKN010 OVC013 None
2018-04-25 20:41 61 59 - 93 60° 3 - 29.63 29.63 10 OVC011 None
2018-04-25 20:36 61 59 - 93 60° 3 - 29.63 29.63 10 BKN010 OVC014 None
2018-04-25 20:31 61 59 - 93 30° 3 - 29.64 29.64 10 OVC012 None
2018-04-25 20:18 63 59 - 88 - Calm - 29.63 29.63 10 -RA OVC012 None
2018-04-25 19:56 64 60 - 88 80° 7 - 29.62 29.62 10 BKN012 BKN021 1-hr Precip Total: Trace
6-hr Precip Total (8pm): 0.00"
6-hr Min Temp (8pm): 61.3°F
6-hr Max Temp (8pm): 68.9°F
2018-04-25 19:04 64 61 - 88 30° 5 - 29.62 29.62 10 FEW013 BKN021 OVC027 None
2018-04-25 18:56 65 61 - 85 350° 7 - 29.62 29.62 10 -RA OVC017 1-hr Precip Total: Trace
2018-04-25 18:54 66 61 - 82 340° 7 - 29.62 29.62 10 -RA OVC017 None
2018-04-25 17:56 67 62 - 81 10° 6 - 29.62 29.62 10 OVC017 None
2018-04-25 17:21 68 61 - 77 80° 3 - 29.62 29.62 10 BKN016 None
2018-04-25 17:11 66 61 - 82 - Calm - 29.63 29.63 10 FEW015 SCT022 None
2018-04-25 17:01 66 61 - 82 - Calm - 29.63 29.63 10 SCT014 BKN020 BKN027 None
2018-04-25 16:56 67 61 - 80 110° 5 - 29.63 29.63 10 BKN016 BKN022 None
2018-04-25 15:56 67 62 - 81 50° 3 - 29.64 29.64 10 OVC011 None
2018-04-25 15:51 66 61 - 82 - Calm - 29.64 29.64 10 OVC011 None
2018-04-25 15:31 66 61 - 82 120° 5 - 29.65 29.65 10 OVC008 None
2018-04-25 15:06 64 61 - 88 120° 6 - 29.66 29.66 10 OVC007 None
2018-04-25 14:56 64 60 - 89 120° 6 - 29.67 29.67 10 OVC005 None
2018-04-25 14:53 63 61 - 93 130° 5 - 29.67 29.67 10 OVC005 None
2018-04-25 14:43 63 61 - 93 120° 7 - 29.67 29.67 10 OVC004 None
2018-04-25 13:56 61 60 - 95 130° 6 - 29.69 29.69 8 OVC003 6-hr Precip Total (2pm): 0.05"
6-hr Min Temp (2pm): 55.2°F
6-hr Max Temp (2pm): 61.3°F
2018-04-25 12:56 60 59 - 96 110° 10 17 29.71 29.71 6 BR OVC003 1-hr Precip Total: Trace
2018-04-25 12:22 59 59 - 100 110° 9 - 29.72 29.72 4 BR OVC003 None
2018-04-25 11:56 60 59 - 98 100° 8 - 29.74 29.74 2 -RA BR OVC002 1-hr Precip Total: 0.01"
2018-04-25 11:46 59 59 - 100 90° 10 - 29.74 29.74 2 -RA BR OVC002 Variable visibility
2018-04-25 11:33 59 59 - 100 130° 13 18 29.75 29.75 3 BR OVC003 None
2018-04-25 10:56 59 59 - 98 110° 10 - 29.77 29.77 10 -RA OVC003 1-hr Precip Total: 0.01"
6-hr Precip Total (11am): 0.04"
2018-04-25 10:33 59 59 - 100 110° 9 - 29.78 29.78 7 -RA OVC003 None
2018-04-25 10:15 59 59 - 100 100° 10 - 29.78 29.78 10 OVC003 None
2018-04-25 09:56 58 58 - 98 100° 10 - 29.79 29.79 5 -RA BR OVC004 1-hr Precip Total: Trace
2018-04-25 09:39 57 57 - 100 100° 7 - 29.80 29.80 4 BR OVC004 None
2018-04-25 09:21 57 57 - 100 100° 7 - 29.81 29.81 10 OVC003 None
2018-04-25 08:56 56 56 - 98 100° 8 - 29.82 29.82 6 -RA BR OVC004 1-hr Precip Total: 0.03"
2018-04-25 08:50 55 55 - 100 110° 9 - 29.82 29.82 5 -RA BR OVC004 None
2018-04-25 08:35 55 55 - 100 110° 8 - 29.83 29.83 9 -RA OVC003 None
2018-04-25 07:56 55 55 - 98 100° 8 - 29.85 29.85 4 -RA BR OVC003 1-hr Precip Total: 0.02"
6-hr Precip Total (8am): 0.14"
24-hr Precip Total (8am): 0.25"
6-hr Min Temp (8am): 53.6°F
6-hr Max Temp (8am): 55.4°F
2018-04-25 07:52 55 55 - 100 110° 10 - 29.85 29.85 3 -RA BR OVC003 None
2018-04-25 07:42 55 55 - 100 110° 8 - 29.85 29.85 2 -RA BR OVC003 None
2018-04-25 07:32 55 55 - 100 100° 12 - 29.85 29.85 3 -RA BR OVC003 None
2018-04-25 07:27 55 55 - 100 110° 9 - 29.86 29.86 2 -RA BR OVC003 None
2018-04-25 07:26 55 55 - 100 100° 9 - 29.86 29.86 2 BR OVC003 None
2018-04-25 07:11 55 55 - 100 110° 10 - 29.86 29.86 3 BR OVC003 None
2018-04-25 07:01 55 55 - 100 100° 10 18 29.86 29.86 3 BR OVC004 None
2018-04-25 06:56 55 54 - 98 100° 9 - 29.86 29.86 2 BR OVC004 1-hr Precip Total: 0.03"
2018-04-25 06:52 55 54 - 93 100° 7 - 29.86 29.86 2 BR OVC004 None
2018-04-25 06:11 55 54 - 93 90° 8 - 29.87 29.87 2 -RA BR OVC005 Variable visibility
2018-04-25 06:06 55 54 - 93 90° 9 - 29.88 29.88 5 -RA BR OVC005 None
2018-04-25 05:56 55 54 - 98 90° 8 - 29.88 29.88 5 BR OVC005 1-hr Precip Total: 0.02"
2018-04-25 05:50 55 54 - 93 90° 9 - 29.88 29.88 4 -RA BR OVC005 None
2018-04-25 05:40 55 54 - 93 90° 9 - 29.88 29.88 5 -RA BR OVC006 None
2018-04-25 05:39 55 54 - 93 90° 12 - 29.88 29.88 6 BR OVC006 None

Support USWX by starting your Amazon purchase here.